createdAt,value
2019-02-09T00:01:43.333Z,8.30
2019-02-09T00:04:12.388Z,8.62
2019-02-09T00:06:42.511Z,8.42
2019-02-09T00:09:12.002Z,8.33
2019-02-09T00:11:41.248Z,8.39
2019-02-09T00:14:10.688Z,8.42
2019-02-09T00:16:43.560Z,8.36
2019-02-09T00:19:12.589Z,8.44
2019-02-09T00:21:42.114Z,8.40
2019-02-09T00:24:11.071Z,8.52
2019-02-09T00:26:40.768Z,8.51
2019-02-09T00:29:13.585Z,8.46
2019-02-09T00:31:43.216Z,8.45
2019-02-09T00:34:12.349Z,8.55
2019-02-09T00:36:41.679Z,8.62
2019-02-09T00:39:10.786Z,8.55
2019-02-09T00:41:40.242Z,8.59
2019-02-09T00:44:11.481Z,8.53
2019-02-09T00:46:40.590Z,8.65
2019-02-09T00:49:10.598Z,8.71
2019-02-09T00:51:40.588Z,8.62
2019-02-09T00:54:10.064Z,8.79
2019-02-09T00:56:39.976Z,8.71
2019-02-09T00:59:09.091Z,8.80
2019-02-09T01:01:38.548Z,8.85
2019-02-09T01:04:09.090Z,8.77
2019-02-09T01:06:39.225Z,8.67
2019-02-09T01:09:12.514Z,8.84
2019-02-09T01:11:44.415Z,8.74
2019-02-09T01:14:14.523Z,8.88
2019-02-09T01:16:43.886Z,8.85
2019-02-09T01:19:14.532Z,8.77
2019-02-09T01:21:47.012Z,8.72
2019-02-09T01:24:17.151Z,8.67
2019-02-09T01:26:46.606Z,8.93
2019-02-09T01:29:15.884Z,8.84
2019-02-09T01:31:46.330Z,8.91
2019-02-09T01:34:15.604Z,8.91
2019-02-09T01:36:47.730Z,8.84
2019-02-09T01:39:17.808Z,8.94
2019-02-09T01:41:47.048Z,8.96
2019-02-09T01:44:16.758Z,9.00
2019-02-09T01:46:47.356Z,8.97
2019-02-09T01:49:19.332Z,9.01
2019-02-09T01:51:48.523Z,8.92
2019-02-09T01:54:18.010Z,9.07
2019-02-09T01:56:47.914Z,9.02
2019-02-09T01:59:17.436Z,9.13
2019-02-09T02:01:46.786Z,9.12
2019-02-09T02:04:16.366Z,9.15
2019-02-09T02:06:46.556Z,9.08
2019-02-09T02:09:15.919Z,9.05
2019-02-09T02:11:45.296Z,9.01
2019-02-09T02:14:14.459Z,9.00
2019-02-09T02:16:44.708Z,9.11
2019-02-09T02:19:13.932Z,9.12
2019-02-09T02:21:42.958Z,9.07
2019-02-09T02:24:12.830Z,9.16
2019-02-09T02:26:42.588Z,9.13
2019-02-09T02:29:13.248Z,9.14
2019-02-09T02:31:42.639Z,9.07
2019-02-09T02:34:12.126Z,9.09
2019-02-09T02:36:41.498Z,9.04
2019-02-09T02:39:13.238Z,8.97
2019-02-09T02:41:42.589Z,8.89
2019-02-09T02:44:11.691Z,8.94
2019-02-09T02:46:42.132Z,8.95
2019-02-09T02:49:11.411Z,9.05
2019-02-09T02:51:40.955Z,9.00
2019-02-09T02:54:09.994Z,9.02
2019-02-09T02:56:39.467Z,9.02
2019-02-09T02:59:08.584Z,8.97
2019-02-09T03:01:37.667Z,8.88
2019-02-09T03:04:06.880Z,8.70
2019-02-09T03:06:36.335Z,8.72
2019-02-09T03:09:08.426Z,8.73
2019-02-09T03:11:37.543Z,8.67
2019-02-09T03:14:07.706Z,8.55
2019-02-09T03:16:36.738Z,8.55
2019-02-09T03:19:06.058Z,8.40
2019-02-09T03:21:35.888Z,8.31
2019-02-09T03:24:05.213Z,8.36
2019-02-09T03:26:34.929Z,8.39
2019-02-09T03:29:04.522Z,8.47
2019-02-09T03:31:34.016Z,8.51
2019-02-09T03:34:03.885Z,8.58
2019-02-09T03:36:33.200Z,8.55
2019-02-09T03:39:02.265Z,8.58
2019-02-09T03:41:31.622Z,8.54
2019-02-09T03:44:00.677Z,8.65
2019-02-09T03:46:29.992Z,8.66
2019-02-09T03:49:00.140Z,8.59
2019-02-09T03:51:29.300Z,8.56
2019-02-09T03:53:58.434Z,8.40
2019-02-09T03:56:29.477Z,8.11
2019-02-09T03:58:59.091Z,8.10
2019-02-09T04:01:28.113Z,7.96
2019-02-09T04:03:57.527Z,7.86
2019-02-09T04:06:26.707Z,7.81
2019-02-09T04:08:56.166Z,7.88
2019-02-09T04:11:25.572Z,7.78
2019-02-09T04:13:54.768Z,7.75
2019-02-09T04:16:24.295Z,7.78
2019-02-09T04:18:54.010Z,7.81
2019-02-09T04:21:26.062Z,7.86
2019-02-09T04:23:55.162Z,7.93
2019-02-09T04:26:24.702Z,7.98
2019-02-09T04:28:54.707Z,8.05
2019-02-09T04:31:24.152Z,7.95
2019-02-09T04:33:56.187Z,8.12
2019-02-09T04:36:25.691Z,8.26
2019-02-09T04:38:55.463Z,8.21
2019-02-09T04:41:25.006Z,8.25
2019-02-09T04:43:54.273Z,8.36
2019-02-09T04:46:28.000Z,8.31
2019-02-09T04:48:57.908Z,8.39
2019-02-09T04:51:27.717Z,8.35
2019-02-09T04:53:57.069Z,8.36
2019-02-09T04:56:26.417Z,8.41
2019-02-09T04:58:56.037Z,8.39
2019-02-09T05:01:25.571Z,8.33
2019-02-09T05:03:54.812Z,8.14
2019-02-09T05:06:24.666Z,8.02
2019-02-09T05:08:54.993Z,7.77
2019-02-09T05:11:24.565Z,7.66
2019-02-09T05:13:54.281Z,7.62
2019-02-09T05:16:23.719Z,7.58
2019-02-09T05:18:53.033Z,7.68
2019-02-09T05:21:23.331Z,7.88
2019-02-09T05:23:53.292Z,8.01
2019-02-09T05:26:22.646Z,8.12
2019-02-09T05:28:52.118Z,8.08
2019-02-09T05:31:23.402Z,8.15
2019-02-09T05:33:56.227Z,8.19
2019-02-09T05:36:29.299Z,8.24
2019-02-09T05:38:59.207Z,8.37
2019-02-09T05:41:28.347Z,8.27
2019-02-09T05:43:58.191Z,8.24
2019-02-09T05:46:27.575Z,8.31
2019-02-09T05:48:57.262Z,8.24
2019-02-09T05:51:29.145Z,8.04
2019-02-09T05:53:58.434Z,7.99
2019-02-09T05:56:27.944Z,7.98
2019-02-09T05:58:57.957Z,7.91
2019-02-09T06:01:32.285Z,7.84
2019-02-09T06:04:01.197Z,7.83
2019-02-09T06:06:31.636Z,7.78
2019-02-09T06:09:01.562Z,7.74
2019-02-09T06:11:32.272Z,7.68
2019-02-09T06:14:01.853Z,7.69
2019-02-09T06:16:30.940Z,7.64
2019-02-09T06:19:00.807Z,7.68
2019-02-09T06:21:29.857Z,7.67
2019-02-09T06:23:59.243Z,7.71
2019-02-09T06:26:29.025Z,7.68
2019-02-09T06:28:58.292Z,7.70
2019-02-09T06:31:29.949Z,7.64
2019-02-09T06:33:59.415Z,7.70
2019-02-09T06:36:29.230Z,7.68
2019-02-09T06:38:58.542Z,7.68
2019-02-09T06:41:28.430Z,7.76
2019-02-09T06:43:58.864Z,7.78
2019-02-09T06:46:28.423Z,7.79
2019-02-09T06:48:58.193Z,7.87
2019-02-09T06:51:27.524Z,7.93
2019-02-09T06:53:57.945Z,8.01
2019-02-09T06:56:27.138Z,7.86
2019-02-09T06:58:56.218Z,7.97
2019-02-09T07:01:26.581Z,7.86
2019-02-09T07:03:57.506Z,7.94
2019-02-09T07:06:27.442Z,7.98
2019-02-09T07:08:56.965Z,8.11
2019-02-09T07:11:27.311Z,8.16
2019-02-09T07:13:57.182Z,8.17
2019-02-09T07:16:26.739Z,8.18
2019-02-09T07:18:56.081Z,8.17
2019-02-09T07:21:25.467Z,8.16
2019-02-09T07:23:55.347Z,8.23
2019-02-09T07:26:25.417Z,8.16
2019-02-09T07:28:55.421Z,8.05
2019-02-09T07:31:24.906Z,8.15
2019-02-09T07:33:54.295Z,8.01
2019-02-09T07:36:23.711Z,8.02
2019-02-09T07:38:52.761Z,8.06
2019-02-09T07:41:22.715Z,7.98
2019-02-09T07:43:52.053Z,7.89
2019-02-09T07:46:22.181Z,7.88
2019-02-09T07:48:52.911Z,7.91
2019-02-09T07:51:22.711Z,7.84
2019-02-09T07:53:52.722Z,8.01
2019-02-09T07:56:24.183Z,7.99
2019-02-09T07:58:54.030Z,7.98
2019-02-09T08:01:24.674Z,8.19
2019-02-09T08:03:54.455Z,8.19
2019-02-09T08:06:23.797Z,8.10
2019-02-09T08:08:54.207Z,8.21
2019-02-09T08:11:24.176Z,8.26
2019-02-09T08:13:53.351Z,8.30
2019-02-09T08:16:22.417Z,8.33
2019-02-09T08:18:51.840Z,8.34
2019-02-09T08:21:21.156Z,8.32
2019-02-09T08:23:50.614Z,8.42
2019-02-09T08:26:20.287Z,8.33
2019-02-09T08:28:49.329Z,8.43
2019-02-09T08:31:18.370Z,8.37
2019-02-09T08:33:47.421Z,8.46
2019-02-09T08:36:16.870Z,8.53
2019-02-09T08:38:45.909Z,8.60
2019-02-09T08:41:14.974Z,8.49
2019-02-09T08:43:44.311Z,8.66
2019-02-09T08:46:13.394Z,8.57
2019-02-09T08:48:42.414Z,8.56
2019-02-09T08:51:13.514Z,8.46
2019-02-09T08:53:43.027Z,8.40
2019-02-09T08:56:12.365Z,8.48
2019-02-09T08:58:41.759Z,8.43
2019-02-09T09:01:10.822Z,8.56
2019-02-09T09:03:39.837Z,8.64
2019-02-09T09:06:08.879Z,8.71
2019-02-09T09:08:38.249Z,8.60
2019-02-09T09:11:07.674Z,8.50
2019-02-09T09:13:37.039Z,8.52
2019-02-09T09:16:10.737Z,8.45
2019-02-09T09:18:40.051Z,8.68
2019-02-09T09:21:10.244Z,8.77
2019-02-09T09:23:39.343Z,9.07
2019-02-09T09:26:08.360Z,8.97
2019-02-09T09:28:37.402Z,8.65
2019-02-09T09:31:06.548Z,8.45
2019-02-09T09:33:35.853Z,8.43
2019-02-09T09:36:06.049Z,8.34
2019-02-09T09:38:35.407Z,8.49
2019-02-09T09:41:04.651Z,8.54
2019-02-09T09:43:34.177Z,8.40
2019-02-09T09:46:03.672Z,8.62
2019-02-09T09:48:32.733Z,8.56
2019-02-09T09:51:02.127Z,8.66
2019-02-09T09:53:31.143Z,8.70
2019-02-09T09:56:00.174Z,8.80
2019-02-09T09:58:29.343Z,8.62
2019-02-09T10:00:58.379Z,8.58
2019-02-09T10:03:27.368Z,8.83
2019-02-09T10:05:57.057Z,8.85
2019-02-09T10:08:26.471Z,8.99
2019-02-09T10:10:55.520Z,9.09
2019-02-09T10:13:25.193Z,9.17
2019-02-09T10:15:54.224Z,9.32
2019-02-09T10:18:23.381Z,9.36
2019-02-09T10:20:52.767Z,9.41
2019-02-09T10:23:21.969Z,9.48
2019-02-09T10:25:51.666Z,9.82
2019-02-09T10:28:20.720Z,9.90
2019-02-09T10:30:49.871Z,9.90
2019-02-09T10:33:18.889Z,9.94
2019-02-09T10:35:48.307Z,9.98
2019-02-09T10:38:17.333Z,9.97
2019-02-09T10:40:46.383Z,9.86
2019-02-09T10:43:15.441Z,9.92
2019-02-09T10:45:44.451Z,9.78
2019-02-09T10:48:14.384Z,10.07
2019-02-09T10:50:45.311Z,10.27
2019-02-09T10:53:14.369Z,10.27
2019-02-09T10:55:43.420Z,10.11
2019-02-09T10:58:12.691Z,10.20
2019-02-09T11:00:45.547Z,9.86
2019-02-09T11:03:14.611Z,9.50
2019-02-09T11:05:43.834Z,9.54
2019-02-09T11:08:13.353Z,9.63
2019-02-09T11:10:42.759Z,9.69
2019-02-09T11:13:12.673Z,9.70
2019-02-09T11:15:41.843Z,9.82
2019-02-09T11:18:10.911Z,9.86
2019-02-09T11:20:39.935Z,9.81
2019-02-09T11:23:09.131Z,9.58
2019-02-09T11:25:38.494Z,9.48
2019-02-09T11:28:08.074Z,9.51
2019-02-09T11:30:37.119Z,9.61
2019-02-09T11:33:06.149Z,9.64
2019-02-09T11:35:35.199Z,9.63
2019-02-09T11:38:04.542Z,9.54
2019-02-09T11:40:33.620Z,9.30
2019-02-09T11:43:03.355Z,9.04
2019-02-09T11:45:32.480Z,9.12
2019-02-09T11:48:01.879Z,9.12
2019-02-09T11:50:30.948Z,9.11
2019-02-09T11:53:00.011Z,9.26
2019-02-09T11:55:29.133Z,10.27
2019-02-09T11:57:58.173Z,10.90
2019-02-09T12:00:29.575Z,11.00
2019-02-09T12:03:03.060Z,10.90
2019-02-09T12:05:29.842Z,11.37
2019-02-09T12:07:58.925Z,11.22
2019-02-09T12:10:28.415Z,10.84
2019-02-09T12:12:57.867Z,10.03
2019-02-09T12:15:29.370Z,10.03
2019-02-09T12:17:58.596Z,10.95
2019-02-09T12:20:27.709Z,11.69
2019-02-09T12:22:56.955Z,11.85
2019-02-09T12:25:31.018Z,11.88
2019-02-09T12:28:00.165Z,11.48
2019-02-09T12:30:31.509Z,11.20
2019-02-09T12:33:01.469Z,11.48
2019-02-09T12:35:30.948Z,11.91
2019-02-09T12:38:00.397Z,11.67
2019-02-09T12:40:31.065Z,12.09
2019-02-09T12:43:00.131Z,11.78
2019-02-09T12:45:30.144Z,11.55
2019-02-09T12:47:59.190Z,11.64
2019-02-09T12:50:28.802Z,11.78
2019-02-09T12:52:58.193Z,11.55
2019-02-09T12:55:27.348Z,11.41
2019-02-09T12:57:56.400Z,10.81
2019-02-09T13:00:30.335Z,10.81
2019-02-09T13:03:01.614Z,10.95
2019-02-09T13:05:30.690Z,11.00
2019-02-09T13:08:00.093Z,11.29
2019-02-09T13:10:29.460Z,11.47
2019-02-09T13:12:59.250Z,11.20
2019-02-09T13:15:29.192Z,11.26
2019-02-09T13:17:58.574Z,10.96
2019-02-09T13:20:28.331Z,10.97
2019-02-09T13:22:57.729Z,10.76
2019-02-09T13:25:27.364Z,10.76
2019-02-09T13:27:56.933Z,10.72
2019-02-09T13:30:28.643Z,10.87
2019-02-09T13:32:57.666Z,10.77
2019-02-09T13:35:26.912Z,10.95
2019-02-09T13:37:55.997Z,11.01
2019-02-09T13:40:25.199Z,10.93
2019-02-09T13:42:54.541Z,10.90
2019-02-09T13:45:35.436Z,10.91
2019-02-09T13:48:04.875Z,10.84
2019-02-09T13:50:34.966Z,10.73
2019-02-09T13:53:04.068Z,10.60
2019-02-09T13:55:33.167Z,10.44
2019-02-09T13:58:02.310Z,10.11
2019-02-09T14:00:32.091Z,9.84
2019-02-09T14:03:01.524Z,9.60
2019-02-09T14:05:30.878Z,9.24
2019-02-09T14:08:00.482Z,9.11
2019-02-09T14:10:30.077Z,9.07
2019-02-09T14:12:59.106Z,9.12
2019-02-09T14:15:30.077Z,9.29
2019-02-09T14:18:00.936Z,9.53
2019-02-09T14:20:30.478Z,9.73
2019-02-09T14:22:59.884Z,9.77
2019-02-09T14:25:28.971Z,9.85
2019-02-09T14:28:00.273Z,9.88
2019-02-09T14:30:30.809Z,10.20
2019-02-09T14:33:00.303Z,10.52
2019-02-09T14:35:30.110Z,10.52
2019-02-09T14:37:59.233Z,10.49
2019-02-09T14:40:30.429Z,10.71
2019-02-09T14:42:59.585Z,10.75
2019-02-09T14:45:31.012Z,10.81
2019-02-09T14:48:00.056Z,10.80
2019-02-09T14:50:29.208Z,10.88
2019-02-09T14:52:58.338Z,10.78
2019-02-09T14:55:32.305Z,10.82
2019-02-09T14:58:02.097Z,10.80
2019-02-09T15:00:33.638Z,10.45
2019-02-09T15:03:02.704Z,10.52
2019-02-09T15:05:31.782Z,10.49
2019-02-09T15:08:00.814Z,10.43
2019-02-09T15:10:29.865Z,10.26
2019-02-09T15:12:58.870Z,10.27
2019-02-09T15:15:40.126Z,10.28
2019-02-09T15:18:10.431Z,10.21
2019-02-09T15:20:43.142Z,10.20
2019-02-09T15:23:12.190Z,10.17
2019-02-09T15:25:41.594Z,10.17
2019-02-09T15:28:12.710Z,10.29
2019-02-09T15:30:41.580Z,10.28
2019-02-09T15:33:10.646Z,10.28
2019-02-09T15:35:39.662Z,10.34
2019-02-09T15:38:08.758Z,10.16
2019-02-09T15:40:38.152Z,10.32
2019-02-09T15:43:07.180Z,10.22
2019-02-09T15:45:37.098Z,10.28
2019-02-09T15:48:06.772Z,10.33
2019-02-09T15:50:36.168Z,10.39
2019-02-09T15:53:05.982Z,10.26
2019-02-09T15:55:35.044Z,10.29
2019-02-09T15:58:04.591Z,10.30
2019-02-09T16:00:33.896Z,10.20
2019-02-09T16:03:02.978Z,10.05
2019-02-09T16:05:32.041Z,10.11
2019-02-09T16:08:01.497Z,10.01
2019-02-09T16:10:30.940Z,9.72
2019-02-09T16:13:00.293Z,9.72
2019-02-09T16:15:29.708Z,9.56
2019-02-09T16:17:58.974Z,9.33
2019-02-09T16:20:28.398Z,9.03
2019-02-09T16:22:57.806Z,8.98
2019-02-09T16:25:26.918Z,8.91
2019-02-09T16:27:56.319Z,8.91
2019-02-09T16:30:26.416Z,8.99
2019-02-09T16:32:55.495Z,8.97
2019-02-09T16:35:25.324Z,8.92
2019-02-09T16:37:54.850Z,9.05
2019-02-09T16:40:26.120Z,9.05
2019-02-09T16:42:55.514Z,9.11
2019-02-09T16:45:26.972Z,9.10
2019-02-09T16:47:56.150Z,9.15
2019-02-09T16:50:25.553Z,9.20
2019-02-09T16:52:54.919Z,9.38
2019-02-09T16:55:24.182Z,9.39
2019-02-09T16:57:53.247Z,9.20
2019-02-09T17:00:25.451Z,9.55
2019-02-09T17:02:56.160Z,9.55
2019-02-09T17:05:25.587Z,9.63
2019-02-09T17:07:54.618Z,9.65
2019-02-09T17:10:24.323Z,9.72
2019-02-09T17:12:53.781Z,9.72
2019-02-09T17:15:25.104Z,9.76
2019-02-09T17:17:54.363Z,9.76
2019-02-09T17:20:23.707Z,9.80
2019-02-09T17:22:53.023Z,9.79
2019-02-09T17:25:22.313Z,9.77
2019-02-09T17:27:51.535Z,9.92
2019-02-09T17:30:25.330Z,9.92
2019-02-09T17:32:54.632Z,9.88
2019-02-09T17:35:23.940Z,9.78
2019-02-09T17:37:53.275Z,9.77
2019-02-09T17:40:24.840Z,9.92
2019-02-09T17:42:54.748Z,9.92
2019-02-09T17:45:26.423Z,9.95
2019-02-09T17:47:55.532Z,9.81
2019-02-09T17:50:25.332Z,9.90
2019-02-09T17:52:55.720Z,9.72
2019-02-09T17:55:24.980Z,9.80
2019-02-09T17:57:54.730Z,9.76
2019-02-09T18:00:49.926Z,9.78
2019-02-09T18:03:19.076Z,9.66
2019-02-09T18:05:48.220Z,9.60
2019-02-09T18:08:17.684Z,9.70
2019-02-09T18:10:46.756Z,9.58
2019-02-09T18:13:15.794Z,9.58
2019-02-09T18:15:45.208Z,9.38
2019-02-09T18:18:14.216Z,9.39
2019-02-09T18:20:43.705Z,9.32
2019-02-09T18:23:12.731Z,9.20
2019-02-09T18:25:41.795Z,9.30
2019-02-09T18:28:11.340Z,9.18
2019-02-09T18:30:40.380Z,9.43
2019-02-09T18:33:09.726Z,9.25
2019-02-09T18:35:38.812Z,9.40
2019-02-09T18:38:08.224Z,9.40
2019-02-09T18:40:37.473Z,9.23
2019-02-09T18:43:07.835Z,9.22
2019-02-09T18:45:36.916Z,9.11
2019-02-09T18:48:06.522Z,9.04
2019-02-09T18:50:35.652Z,9.09
2019-02-09T18:53:04.691Z,9.14
2019-02-09T18:55:34.172Z,9.28
2019-02-09T18:58:03.178Z,9.36
2019-02-09T19:00:33.144Z,9.15
2019-02-09T19:03:02.530Z,9.29
2019-02-09T19:05:31.558Z,9.27
2019-02-09T19:08:00.996Z,9.14
2019-02-09T19:10:30.158Z,9.12
2019-02-09T19:12:59.556Z,9.08
2019-02-09T19:15:30.715Z,9.15
2019-02-09T19:17:59.818Z,9.21
2019-02-09T19:20:34.710Z,9.29
2019-02-09T19:23:03.744Z,9.31
2019-02-09T19:25:33.101Z,9.24
2019-02-09T19:28:02.131Z,9.36
2019-02-09T19:30:34.593Z,9.19
2019-02-09T19:33:04.500Z,9.16
2019-02-09T19:35:34.626Z,9.09
2019-02-09T19:38:06.041Z,9.17
2019-02-09T19:40:35.240Z,9.14
2019-02-09T19:43:05.648Z,9.02
2019-02-09T19:45:36.608Z,9.10
2019-02-09T19:48:06.811Z,9.08
2019-02-09T19:50:35.946Z,9.04
2019-02-09T19:53:05.506Z,9.15
2019-02-09T19:55:34.639Z,9.10
2019-02-09T19:58:06.343Z,9.17
2019-02-09T20:00:37.852Z,9.16
2019-02-09T20:03:07.721Z,9.02
2019-02-09T20:05:36.793Z,8.96
2019-02-09T20:08:07.414Z,9.05
2019-02-09T20:10:37.602Z,9.06
2019-02-09T20:13:07.469Z,9.08
2019-02-09T20:15:36.529Z,9.11
2019-02-09T20:18:06.865Z,8.90
2019-02-09T20:20:36.833Z,8.90
2019-02-09T20:23:06.738Z,9.10
2019-02-09T20:25:36.085Z,8.99
2019-02-09T20:28:05.697Z,9.03
2019-02-09T20:30:35.524Z,9.01
2019-02-09T20:33:07.137Z,9.07
2019-02-09T20:35:36.449Z,9.12
2019-02-09T20:38:06.014Z,9.04
2019-02-09T20:40:43.070Z,8.97
2019-02-09T20:43:14.114Z,9.15
2019-02-09T20:45:43.146Z,9.14
2019-02-09T20:48:12.529Z,9.13
2019-02-09T20:50:41.542Z,9.10
2019-02-09T20:53:10.571Z,8.94
2019-02-09T20:55:40.003Z,9.12
2019-02-09T20:58:10.938Z,9.08
2019-02-09T21:00:40.071Z,9.19
2019-02-09T21:03:09.148Z,9.18
2019-02-09T21:05:38.199Z,9.16
2019-02-09T21:08:07.959Z,9.19
2019-02-09T21:10:37.610Z,9.19
2019-02-09T21:13:07.259Z,9.21
2019-02-09T21:15:36.682Z,9.11
2019-02-09T21:18:06.750Z,9.17
2019-02-09T21:20:36.474Z,9.08
2019-02-09T21:23:05.839Z,9.05
2019-02-09T21:25:37.142Z,9.02
2019-02-09T21:28:06.517Z,9.21
2019-02-09T21:30:35.890Z,9.22
2019-02-09T21:33:25.562Z,9.17
2019-02-09T21:35:54.641Z,9.10
2019-02-09T21:38:23.728Z,8.99
2019-02-09T21:40:52.799Z,9.02
2019-02-09T21:43:22.000Z,9.02
2019-02-09T21:45:51.384Z,9.12
2019-02-09T21:48:21.849Z,8.96
2019-02-09T21:50:50.889Z,8.98
2019-02-09T21:53:19.934Z,8.99
2019-02-09T21:55:49.406Z,8.98
2019-02-09T21:58:18.886Z,9.03
2019-02-09T22:00:48.007Z,9.14
2019-02-09T22:03:17.060Z,9.12
2019-02-09T22:05:51.632Z,9.18
2019-02-09T22:08:19.675Z,9.03
2019-02-09T22:10:48.450Z,9.10
2019-02-09T22:13:17.936Z,9.04
2019-02-09T22:15:47.322Z,8.92
2019-02-09T22:18:16.355Z,9.11
2019-02-09T22:20:52.449Z,9.05
2019-02-09T22:23:16.431Z,8.93
2019-02-09T22:25:45.506Z,9.02
2019-02-09T22:28:14.856Z,9.00
2019-02-09T22:30:44.013Z,8.93
2019-02-09T22:33:14.717Z,9.00
2019-02-09T22:35:44.067Z,8.93
2019-02-09T22:38:13.221Z,8.93
2019-02-09T22:40:48.574Z,8.96
2019-02-09T22:43:18.092Z,9.06
2019-02-09T22:45:47.233Z,9.05
2019-02-09T22:48:16.257Z,9.00
2019-02-09T22:50:46.711Z,8.89
2019-02-09T22:53:16.007Z,8.91
2019-02-09T22:55:46.252Z,8.86
2019-02-09T22:58:15.359Z,8.97
2019-02-09T23:01:22.555Z,8.98
2019-02-09T23:03:59.435Z,8.96
2019-02-09T23:06:40.777Z,8.84
2019-02-09T23:09:14.131Z,8.85
2019-02-09T23:11:43.779Z,8.81
2019-02-09T23:14:12.825Z,8.92
2019-02-09T23:16:42.183Z,8.88
2019-02-09T23:19:11.278Z,8.79
2019-02-09T23:21:40.335Z,8.72
2019-02-09T23:24:09.541Z,8.76
2019-02-09T23:26:39.366Z,8.69
2019-02-09T23:29:08.423Z,8.75
2019-02-09T23:31:37.461Z,8.66
2019-02-09T23:34:06.462Z,8.59
2019-02-09T23:36:35.487Z,8.58
2019-02-09T23:39:25.355Z,8.47
2019-02-09T23:41:54.997Z,8.51
2019-02-09T23:44:24.052Z,8.52
2019-02-09T23:46:53.443Z,8.50
2019-02-09T23:49:22.566Z,8.34
2019-02-09T23:51:51.663Z,8.51
2019-02-09T23:54:21.326Z,8.45
2019-02-09T23:56:50.812Z,8.33
2019-02-09T23:59:19.889Z,8.36
